createdAt,value
2023-05-20T00:00:34.710Z,8.70
2023-05-20T00:03:01.448Z,8.87
2023-05-20T00:05:28.092Z,9.53
2023-05-20T00:07:54.704Z,8.27
2023-05-20T00:10:21.291Z,8.33
2023-05-20T00:12:47.863Z,9.27
2023-05-20T00:15:14.483Z,11.47
2023-05-20T00:17:41.186Z,9.27
2023-05-20T00:20:08.504Z,8.53
2023-05-20T00:22:35.100Z,8.47
2023-05-20T00:25:01.736Z,8.50
2023-05-20T00:27:28.389Z,7.87
2023-05-20T00:29:54.994Z,8.60
2023-05-20T00:32:21.665Z,8.37
2023-05-20T00:34:58.356Z,7.77
2023-05-20T00:37:25.297Z,8.13
2023-05-20T00:39:51.989Z,8.37
2023-05-20T00:42:25.686Z,10.07
2023-05-20T00:44:52.802Z,9.13
2023-05-20T00:47:20.707Z,8.40
2023-05-20T00:49:50.327Z,7.97
2023-05-20T00:52:19.056Z,8.70
2023-05-20T00:54:45.938Z,9.83
2023-05-20T00:57:13.338Z,8.63
2023-05-20T00:59:40.990Z,7.73
2023-05-20T01:02:08.587Z,7.93
2023-05-20T01:04:35.161Z,8.30
2023-05-20T01:07:04.478Z,8.80
2023-05-20T01:09:32.175Z,9.20
2023-05-20T01:11:59.240Z,8.73
2023-05-20T01:14:27.485Z,8.50
2023-05-20T01:16:55.479Z,8.20
2023-05-20T01:19:34.252Z,8.80
2023-05-20T01:22:03.331Z,8.40
2023-05-20T01:24:29.899Z,8.63
2023-05-20T01:26:58.326Z,8.07
2023-05-20T01:29:25.454Z,7.97
2023-05-20T01:31:53.447Z,8.30
2023-05-20T01:34:20.225Z,9.03
2023-05-20T01:36:48.635Z,9.20
2023-05-20T01:39:15.970Z,9.23
2023-05-20T01:41:42.930Z,8.33
2023-05-20T01:44:10.085Z,8.43
2023-05-20T01:46:36.844Z,12.33
2023-05-20T01:49:04.180Z,9.63
2023-05-20T01:51:33.673Z,8.37
2023-05-20T01:54:00.744Z,8.90
2023-05-20T01:56:27.347Z,9.47
2023-05-20T01:58:54.002Z,10.60
2023-05-20T02:01:20.813Z,9.03
2023-05-20T02:03:47.485Z,9.13
2023-05-20T02:06:14.173Z,8.30
2023-05-20T02:08:40.817Z,10.00
2023-05-20T02:11:07.613Z,9.63
2023-05-20T02:13:34.252Z,9.63
2023-05-20T02:16:01.072Z,10.27
2023-05-20T02:18:27.785Z,9.00
2023-05-20T02:20:54.498Z,11.03
2023-05-20T02:23:21.135Z,10.40
2023-05-20T02:25:47.769Z,10.33
2023-05-20T02:28:15.874Z,11.50
2023-05-20T02:30:42.478Z,9.70
2023-05-20T02:33:09.907Z,9.43
2023-05-20T02:35:36.895Z,10.30
2023-05-20T02:38:03.929Z,10.83
2023-05-20T02:40:30.627Z,12.53
2023-05-20T02:42:57.821Z,10.93
2023-05-20T02:45:24.514Z,11.50
2023-05-20T02:47:51.162Z,10.67
2023-05-20T02:50:17.795Z,10.70
2023-05-20T02:52:45.668Z,11.07
2023-05-20T02:55:12.645Z,11.53
2023-05-20T02:57:39.585Z,10.53
2023-05-20T03:00:11.071Z,11.90
2023-05-20T03:02:37.855Z,11.00
2023-05-20T03:05:05.272Z,11.07
2023-05-20T03:07:34.362Z,11.80
2023-05-20T03:10:02.829Z,11.50
2023-05-20T03:12:30.015Z,11.27
2023-05-20T03:14:58.914Z,15.53
2023-05-20T03:17:25.974Z,14.70
2023-05-20T03:19:52.698Z,12.23
2023-05-20T03:22:19.289Z,14.43
2023-05-20T03:24:46.500Z,12.67
2023-05-20T03:27:13.529Z,13.60
2023-05-20T03:29:41.053Z,12.97
2023-05-20T03:32:10.731Z,13.40
2023-05-20T03:34:38.643Z,13.23
2023-05-20T03:37:06.139Z,13.30
2023-05-20T03:39:32.834Z,12.77
2023-05-20T03:41:59.996Z,15.07
2023-05-20T03:44:26.751Z,13.63
2023-05-20T03:46:53.976Z,16.13
2023-05-20T03:49:20.602Z,12.97
2023-05-20T03:51:47.216Z,12.97
2023-05-20T03:54:16.781Z,13.90
2023-05-20T03:56:47.146Z,13.10
2023-05-20T03:59:13.849Z,14.83
2023-05-20T04:01:40.594Z,14.57
2023-05-20T04:04:07.307Z,12.73
2023-05-20T04:06:34.213Z,14.47
2023-05-20T04:09:01.205Z,12.37
2023-05-20T04:11:27.838Z,14.20
2023-05-20T04:13:54.904Z,13.07
2023-05-20T04:16:21.722Z,14.13
2023-05-20T04:18:49.102Z,15.07
2023-05-20T04:21:16.367Z,22.23
2023-05-20T04:23:43.162Z,13.97
2023-05-20T04:26:09.788Z,16.63
2023-05-20T04:28:37.797Z,13.97
2023-05-20T04:31:04.977Z,17.40
2023-05-20T04:33:38.733Z,16.00
2023-05-20T04:36:07.447Z,13.67
2023-05-20T04:38:35.394Z,17.90
2023-05-20T04:41:02.328Z,16.17
2023-05-20T04:43:30.329Z,15.23
2023-05-20T04:45:58.051Z,15.63
2023-05-20T04:48:25.856Z,17.10
2023-05-20T04:50:52.735Z,15.23
2023-05-20T04:53:19.400Z,17.70
2023-05-20T04:55:46.188Z,16.77
2023-05-20T04:58:15.653Z,19.07
2023-05-20T05:00:42.414Z,17.87
2023-05-20T05:03:09.245Z,17.93
2023-05-20T05:05:37.013Z,18.17
2023-05-20T05:08:04.099Z,16.43
2023-05-20T05:10:31.800Z,18.50
2023-05-20T05:12:58.852Z,17.13
2023-05-20T05:15:26.014Z,16.03
2023-05-20T05:17:52.830Z,18.00
2023-05-20T05:20:19.567Z,19.80
2023-05-20T05:22:46.401Z,18.43
2023-05-20T05:25:13.441Z,21.10
2023-05-20T05:27:40.564Z,22.47
2023-05-20T05:30:08.049Z,20.27
2023-05-20T05:32:35.282Z,19.87
2023-05-20T05:35:02.117Z,19.67
2023-05-20T05:37:28.718Z,18.70
2023-05-20T05:39:55.367Z,22.03
2023-05-20T05:42:21.997Z,17.93
2023-05-20T05:44:50.003Z,18.17
2023-05-20T05:47:16.667Z,21.80
2023-05-20T05:49:43.352Z,21.23
2023-05-20T05:52:09.949Z,21.13
2023-05-20T05:54:36.677Z,17.83
2023-05-20T05:57:05.775Z,20.27
2023-05-20T05:59:33.618Z,20.70
2023-05-20T06:02:00.329Z,20.50
2023-05-20T06:04:27.079Z,21.57
2023-05-20T06:06:56.650Z,21.37
2023-05-20T06:09:23.212Z,20.67
2023-05-20T06:11:51.814Z,19.53
2023-05-20T06:14:18.422Z,18.40
2023-05-20T06:16:45.138Z,19.03
2023-05-20T06:19:12.379Z,20.57
2023-05-20T06:21:39.329Z,23.50
2023-05-20T06:24:06.094Z,19.97
2023-05-20T06:26:35.209Z,23.53
2023-05-20T06:29:03.352Z,21.00
2023-05-20T06:31:30.345Z,19.97
2023-05-20T06:33:57.305Z,20.80
2023-05-20T06:36:24.129Z,20.30
2023-05-20T06:38:50.709Z,20.90
2023-05-20T06:41:17.452Z,22.13
2023-05-20T06:43:44.570Z,26.73
2023-05-20T06:46:29.168Z,22.77
2023-05-20T06:49:01.344Z,20.57
2023-05-20T06:51:28.483Z,21.93
2023-05-20T06:53:55.459Z,19.07
2023-05-20T06:56:22.225Z,21.07
2023-05-20T06:58:49.022Z,21.57
2023-05-20T07:01:17.931Z,21.10
2023-05-20T07:03:45.911Z,20.83
2023-05-20T07:06:12.951Z,21.00
2023-05-20T07:08:39.689Z,21.90
2023-05-20T07:11:06.420Z,19.57
2023-05-20T07:13:33.333Z,22.40
2023-05-20T07:16:00.026Z,23.23
2023-05-20T07:18:28.461Z,20.43
2023-05-20T07:20:59.649Z,18.93
2023-05-20T07:23:52.269Z,18.63
2023-05-20T07:26:18.877Z,21.63
2023-05-20T07:28:47.149Z,18.03
2023-05-20T07:31:14.030Z,22.07
2023-05-20T07:33:44.480Z,21.07
2023-05-20T07:36:11.784Z,18.40
2023-05-20T07:38:45.050Z,18.20
2023-05-20T07:41:19.777Z,19.93
2023-05-20T07:43:46.529Z,19.60
2023-05-20T07:46:13.133Z,18.87
2023-05-20T07:48:40.188Z,18.80
2023-05-20T07:51:06.804Z,18.33
2023-05-20T07:53:33.961Z,19.23
2023-05-20T07:56:01.037Z,17.37
2023-05-20T07:58:29.470Z,18.73
2023-05-20T08:00:56.568Z,20.60
2023-05-20T08:03:23.506Z,24.13
2023-05-20T08:05:59.060Z,23.00
2023-05-20T08:08:26.906Z,22.17
2023-05-20T08:11:01.682Z,22.37
2023-05-20T08:13:30.176Z,22.77
2023-05-20T08:15:56.857Z,25.93
2023-05-20T08:18:25.393Z,26.40
2023-05-20T08:20:52.147Z,23.07
2023-05-20T08:23:19.535Z,27.20
2023-05-20T08:25:46.969Z,26.10
2023-05-20T08:28:14.259Z,29.00
2023-05-20T08:30:41.642Z,25.33
2023-05-20T08:33:08.646Z,23.27
2023-05-20T08:35:36.002Z,25.23
2023-05-20T08:38:02.866Z,26.07
2023-05-20T08:40:29.521Z,26.03
2023-05-20T08:42:57.767Z,26.27
2023-05-20T08:45:27.932Z,25.33
2023-05-20T08:47:59.348Z,27.23
2023-05-20T08:50:26.035Z,19.67
2023-05-20T08:52:52.673Z,21.73
2023-05-20T08:55:24.020Z,24.20
2023-05-20T08:57:51.410Z,24.93
2023-05-20T09:00:18.633Z,22.53
2023-05-20T09:02:46.255Z,25.07
2023-05-20T09:05:13.402Z,24.43
2023-05-20T09:07:40.192Z,22.63
2023-05-20T09:10:07.037Z,21.80
2023-05-20T09:12:33.650Z,26.97
2023-05-20T09:15:00.293Z,23.77
2023-05-20T09:17:27.000Z,21.00
2023-05-20T09:19:54.047Z,21.50
2023-05-20T09:22:28.163Z,23.00
2023-05-20T09:24:55.456Z,23.23
2023-05-20T09:27:22.322Z,21.87
2023-05-20T09:29:49.199Z,20.60
2023-05-20T09:32:16.400Z,18.60
2023-05-20T09:34:43.244Z,20.13
2023-05-20T09:37:10.059Z,19.37
2023-05-20T09:39:58.121Z,19.30
2023-05-20T09:42:26.632Z,19.33
2023-05-20T09:44:58.131Z,19.13
2023-05-20T09:47:25.366Z,22.53
2023-05-20T09:49:52.771Z,17.97
2023-05-20T09:52:21.339Z,21.83
2023-05-20T09:54:48.526Z,19.60
2023-05-20T09:57:15.411Z,19.77
2023-05-20T09:59:42.263Z,22.97
2023-05-20T10:02:08.986Z,22.47
2023-05-20T10:04:37.330Z,17.87
2023-05-20T10:07:14.211Z,18.63
2023-05-20T10:09:52.868Z,19.73
2023-05-20T10:12:51.513Z,18.20
2023-05-20T10:15:24.296Z,19.17
2023-05-20T10:17:51.182Z,19.27
2023-05-20T10:20:18.122Z,16.63
2023-05-20T10:22:54.875Z,16.40
2023-05-20T10:25:26.768Z,15.73
2023-05-20T10:28:03.824Z,15.23
2023-05-20T10:30:30.668Z,16.07
2023-05-20T10:33:00.763Z,15.83
2023-05-20T10:35:27.756Z,15.73
2023-05-20T10:37:55.290Z,17.30
2023-05-20T10:40:22.956Z,16.30
2023-05-20T10:42:49.582Z,14.87
2023-05-20T10:45:26.602Z,16.77
2023-05-20T10:47:57.098Z,15.73
2023-05-20T10:50:49.976Z,14.97
2023-05-20T10:53:29.405Z,15.10
2023-05-20T10:55:59.880Z,14.60
2023-05-20T10:58:26.673Z,14.97
2023-05-20T11:00:54.527Z,15.37
2023-05-20T11:03:24.628Z,14.83
2023-05-20T11:05:51.738Z,13.37
2023-05-20T11:08:28.679Z,14.67
2023-05-20T11:10:56.905Z,14.57
2023-05-20T11:13:23.622Z,13.90
2023-05-20T11:15:50.542Z,13.33
2023-05-20T11:18:18.911Z,14.47
2023-05-20T11:20:46.581Z,14.17
2023-05-20T11:23:14.122Z,13.97
2023-05-20T11:25:40.689Z,13.67
2023-05-20T11:28:09.869Z,14.60
2023-05-20T11:30:36.863Z,14.27
2023-05-20T11:33:04.298Z,14.00
2023-05-20T11:35:32.287Z,12.53
2023-05-20T11:38:09.492Z,13.17
2023-05-20T11:40:49.602Z,14.57
2023-05-20T11:43:17.643Z,14.23
2023-05-20T11:45:48.503Z,13.57
2023-05-20T11:48:18.002Z,13.53
2023-05-20T11:50:45.843Z,12.60
2023-05-20T11:53:19.104Z,13.00
2023-05-20T11:55:50.089Z,13.47
2023-05-20T11:58:17.846Z,13.33
2023-05-20T12:03:17.106Z,13.40
2023-05-20T12:05:44.116Z,14.33
2023-05-20T12:08:10.751Z,13.47
2023-05-20T12:10:38.079Z,13.97
2023-05-20T12:13:08.621Z,14.03
2023-05-20T12:15:36.304Z,14.13
2023-05-20T12:18:03.513Z,13.03
2023-05-20T12:20:31.520Z,12.63
2023-05-20T12:22:58.914Z,12.70
2023-05-20T12:25:25.984Z,11.67
2023-05-20T12:27:52.671Z,11.83
2023-05-20T12:30:20.181Z,12.47
2023-05-20T12:32:47.243Z,11.80
2023-05-20T12:35:14.211Z,11.63
2023-05-20T12:37:44.268Z,13.97
2023-05-20T12:40:12.706Z,12.53
2023-05-20T12:42:39.648Z,12.33
2023-05-20T12:45:06.603Z,12.60
2023-05-20T12:47:33.421Z,13.40
2023-05-20T12:50:00.612Z,12.70
2023-05-20T12:52:27.390Z,12.20
2023-05-20T12:54:54.556Z,12.97
2023-05-20T12:57:21.625Z,13.38
2023-05-20T12:59:48.244Z,13.67
2023-05-20T13:02:14.900Z,12.07
2023-05-20T13:04:41.529Z,18.03
2023-05-20T13:07:08.116Z,14.20
2023-05-20T13:09:34.794Z,13.87
2023-05-20T13:12:02.135Z,14.00
2023-05-20T13:14:28.770Z,14.57
2023-05-20T13:16:55.524Z,14.43
2023-05-20T13:19:22.733Z,15.13
2023-05-20T13:21:49.842Z,15.10
2023-05-20T13:24:17.072Z,14.80
2023-05-20T13:26:43.984Z,15.77
2023-05-20T13:29:10.753Z,17.23
2023-05-20T13:31:37.602Z,17.07
2023-05-20T13:34:04.561Z,16.83
2023-05-20T13:36:31.371Z,15.73
2023-05-20T13:38:59.010Z,16.27
2023-05-20T13:41:26.727Z,16.27
2023-05-20T13:43:53.332Z,17.57
2023-05-20T13:46:19.966Z,17.13
2023-05-20T13:48:46.563Z,17.20
2023-05-20T13:51:13.184Z,20.77
2023-05-20T13:53:40.105Z,19.53
2023-05-20T13:56:09.232Z,19.27
2023-05-20T13:58:36.761Z,20.30
2023-05-20T14:01:04.777Z,19.70
2023-05-20T14:03:33.259Z,18.40
2023-05-20T14:06:00.769Z,20.83
2023-05-20T14:08:27.445Z,26.27
2023-05-20T14:10:55.520Z,19.60
2023-05-20T14:13:22.678Z,19.17
2023-05-20T14:15:50.724Z,19.03
2023-05-20T14:18:17.726Z,18.43
2023-05-20T14:20:44.698Z,18.63
2023-05-20T14:23:11.742Z,18.17
2023-05-20T14:25:38.437Z,19.03
2023-05-20T14:28:05.304Z,19.53
2023-05-20T14:30:32.201Z,21.37
2023-05-20T14:32:58.896Z,20.00
2023-05-20T14:35:25.535Z,19.23
2023-05-20T14:37:52.565Z,18.87
2023-05-20T14:40:19.287Z,19.60
2023-05-20T14:42:45.962Z,18.83
2023-05-20T14:45:12.547Z,17.60
2023-05-20T14:47:42.477Z,19.17
2023-05-20T14:50:09.301Z,17.30
2023-05-20T14:52:35.982Z,19.33
2023-05-20T14:55:02.588Z,18.90
2023-05-20T14:57:29.218Z,18.87
2023-05-20T14:59:55.933Z,17.83
2023-05-20T15:02:22.613Z,18.53
2023-05-20T15:04:49.342Z,17.80
2023-05-20T15:07:16.071Z,16.60
2023-05-20T15:09:43.939Z,16.17
2023-05-20T15:12:14.101Z,16.77
2023-05-20T15:14:40.688Z,15.50
2023-05-20T15:17:07.761Z,16.97
2023-05-20T15:19:34.705Z,16.60
2023-05-20T15:22:01.462Z,17.20
2023-05-20T15:24:28.061Z,16.73
2023-05-20T15:26:55.122Z,16.90
2023-05-20T15:29:22.056Z,17.13
2023-05-20T15:31:48.694Z,17.00
2023-05-20T15:34:15.381Z,16.50
2023-05-20T15:36:41.981Z,15.87
2023-05-20T15:39:09.090Z,18.63
2023-05-20T15:41:39.858Z,17.33
2023-05-20T15:44:07.168Z,17.50
2023-05-20T15:46:33.798Z,17.40
2023-05-20T15:49:00.463Z,25.13
2023-05-20T15:51:27.027Z,17.67
2023-05-20T15:53:53.591Z,17.47
2023-05-20T15:56:20.188Z,18.17
2023-05-20T15:58:46.810Z,17.47
2023-05-20T16:01:13.448Z,18.00
2023-05-20T16:03:40.065Z,20.17
2023-05-20T16:06:07.459Z,18.73
2023-05-20T16:08:36.284Z,19.20
2023-05-20T16:11:03.097Z,17.17
2023-05-20T16:13:29.838Z,18.37
2023-05-20T16:15:57.923Z,17.10
2023-05-20T16:18:28.534Z,18.30
2023-05-20T16:20:55.526Z,17.17
2023-05-20T16:23:22.197Z,16.17
2023-05-20T16:25:50.069Z,17.30
2023-05-20T16:28:16.658Z,17.87
2023-05-20T16:30:43.302Z,17.80
2023-05-20T16:33:10.066Z,17.50
2023-05-20T16:35:36.754Z,18.17
2023-05-20T16:38:03.335Z,17.40
2023-05-20T16:40:29.962Z,18.90
2023-05-20T16:42:56.527Z,17.03
2023-05-20T16:45:23.105Z,18.77
2023-05-20T16:47:49.819Z,16.70
2023-05-20T16:50:16.468Z,24.77
2023-05-20T16:52:43.179Z,20.50
2023-05-20T16:55:10.283Z,17.37
2023-05-20T16:57:36.965Z,17.67
2023-05-20T17:00:07.959Z,19.23
2023-05-20T17:02:34.569Z,21.13
2023-05-20T17:05:01.501Z,20.70
2023-05-20T17:07:28.099Z,21.93
2023-05-20T17:09:54.662Z,23.73
2023-05-20T17:12:21.562Z,21.07
2023-05-20T17:14:48.156Z,21.67
2023-05-20T17:17:15.100Z,25.60
2023-05-20T17:19:42.007Z,23.00
2023-05-20T17:22:08.694Z,24.30
2023-05-20T17:24:35.901Z,24.83
2023-05-20T17:27:03.971Z,25.47
2023-05-20T17:29:30.646Z,25.57
2023-05-20T17:31:57.455Z,26.93
2023-05-20T17:34:24.035Z,27.20
2023-05-20T17:36:50.589Z,27.00
2023-05-20T17:39:17.256Z,27.17
2023-05-20T17:41:44.350Z,28.60
2023-05-20T17:44:10.910Z,26.80
2023-05-20T17:46:37.684Z,27.53
2023-05-20T17:49:04.485Z,26.33
2023-05-20T17:51:31.866Z,27.33
2023-05-20T17:53:58.454Z,26.73
2023-05-20T17:56:25.124Z,25.37
2023-05-20T17:58:52.036Z,25.23
2023-05-20T18:01:19.812Z,24.93
2023-05-20T18:03:46.780Z,24.13
2023-05-20T18:06:13.965Z,23.53
2023-05-20T18:08:40.706Z,21.70
2023-05-20T18:11:07.279Z,23.73
2023-05-20T18:13:33.841Z,21.67
2023-05-20T18:16:00.657Z,23.07
2023-05-20T18:18:27.266Z,22.67
2023-05-20T18:20:53.836Z,21.17
2023-05-20T18:23:20.482Z,21.27
2023-05-20T18:25:47.046Z,21.57
2023-05-20T18:28:13.717Z,20.30
2023-05-20T18:30:40.484Z,20.90
2023-05-20T18:33:07.393Z,21.60
2023-05-20T18:35:34.015Z,21.27
2023-05-20T18:38:00.623Z,19.13
2023-05-20T18:40:28.220Z,19.23
2023-05-20T18:42:54.909Z,19.23
2023-05-20T18:45:21.998Z,18.43
2023-05-20T18:47:48.934Z,17.67
2023-05-20T18:50:15.606Z,18.90
2023-05-20T18:52:42.274Z,18.63
2023-05-20T18:55:08.944Z,17.47
2023-05-20T18:57:35.805Z,17.67
2023-05-20T19:00:02.920Z,17.97
2023-05-20T19:02:29.559Z,17.47
2023-05-20T19:04:56.509Z,18.80
2023-05-20T19:07:23.622Z,18.40
2023-05-20T19:09:52.048Z,18.80
2023-05-20T19:12:18.672Z,19.13
2023-05-20T19:14:46.605Z,18.60
2023-05-20T19:17:13.837Z,18.60
2023-05-20T19:19:40.525Z,18.00
2023-05-20T19:22:07.213Z,17.07
2023-05-20T19:24:33.984Z,18.90
2023-05-20T19:27:01.819Z,20.27
2023-05-20T19:29:28.450Z,18.23
2023-05-20T19:31:55.724Z,17.93
2023-05-20T19:34:22.547Z,18.77
2023-05-20T19:36:49.170Z,18.07
2023-05-20T19:39:15.837Z,15.83
2023-05-20T19:41:42.461Z,17.53
2023-05-20T19:44:09.032Z,20.87
2023-05-20T19:46:36.102Z,19.37
2023-05-20T19:49:03.071Z,19.30
2023-05-20T19:51:29.645Z,18.63
2023-05-20T19:53:56.268Z,18.87
2023-05-20T19:56:24.123Z,18.43
2023-05-20T19:58:53.570Z,19.97
2023-05-20T20:01:20.511Z,19.97
2023-05-20T20:03:47.210Z,21.17
2023-05-20T20:06:13.814Z,20.10
2023-05-20T20:08:40.423Z,20.40
2023-05-20T20:11:07.447Z,20.20
2023-05-20T20:13:34.102Z,18.83
2023-05-20T20:16:00.757Z,18.27
2023-05-20T20:18:27.378Z,20.90
2023-05-20T20:20:54.171Z,19.83
2023-05-20T20:23:20.949Z,21.93
2023-05-20T20:25:50.695Z,22.00
2023-05-20T20:28:17.376Z,22.03
2023-05-20T20:30:43.954Z,22.63
2023-05-20T20:33:11.208Z,21.33
2023-05-20T20:35:38.188Z,21.10
2023-05-20T20:38:10.815Z,22.80
2023-05-20T20:40:47.240Z,23.73
2023-05-20T20:43:20.554Z,22.90
2023-05-20T20:45:47.924Z,21.37
2023-05-20T20:48:18.985Z,20.73
2023-05-20T20:50:47.986Z,20.23
2023-05-20T20:53:16.414Z,20.83
2023-05-20T20:55:51.202Z,22.17
2023-05-20T20:58:17.848Z,20.57
2023-05-20T21:00:45.746Z,19.80
2023-05-20T21:03:12.984Z,24.70
2023-05-20T21:05:39.829Z,21.03
2023-05-20T21:08:08.595Z,23.07
2023-05-20T21:10:37.106Z,25.23
2023-05-20T21:13:04.078Z,23.87
2023-05-20T21:15:30.695Z,23.20
2023-05-20T21:17:57.291Z,23.30
2023-05-20T21:20:24.052Z,24.93
2023-05-20T21:22:50.614Z,25.57
2023-05-20T21:25:17.271Z,24.27
2023-05-20T21:27:43.982Z,26.33
2023-05-20T21:30:10.978Z,24.63
2023-05-20T21:32:38.055Z,26.80
2023-05-20T21:35:04.939Z,25.07
2023-05-20T21:37:31.627Z,26.37
2023-05-20T21:39:58.219Z,24.17
2023-05-20T21:42:24.845Z,25.07
2023-05-20T21:44:51.592Z,24.77
2023-05-20T21:47:19.668Z,24.07
2023-05-20T21:49:48.060Z,26.97
2023-05-20T21:52:14.697Z,25.33
2023-05-20T21:54:41.736Z,24.13
2023-05-20T21:57:08.335Z,24.90
2023-05-20T21:59:34.963Z,26.47
2023-05-20T22:02:01.951Z,27.47
2023-05-20T22:04:28.806Z,26.13
2023-05-20T22:06:56.239Z,26.63
2023-05-20T22:09:23.022Z,26.20
2023-05-20T22:11:49.728Z,25.13
2023-05-20T22:14:16.892Z,26.50
2023-05-20T22:16:46.494Z,25.67
2023-05-20T22:19:14.033Z,26.37
2023-05-20T22:21:50.112Z,28.80
2023-05-20T22:24:17.841Z,27.33
2023-05-20T22:26:44.615Z,26.87
2023-05-20T22:29:11.231Z,28.90
2023-05-20T22:31:38.180Z,28.00
2023-05-20T22:34:05.542Z,28.70
2023-05-20T22:36:36.357Z,30.20
2023-05-20T22:39:03.959Z,30.67
2023-05-20T22:41:30.939Z,37.23
2023-05-20T22:43:57.747Z,39.53
2023-05-20T22:46:24.714Z,40.57
2023-05-20T22:48:53.090Z,41.67
2023-05-20T22:51:24.560Z,39.57
2023-05-20T22:53:51.554Z,37.83
2023-05-20T22:56:18.534Z,36.70
2023-05-20T22:58:45.878Z,34.40
2023-05-20T23:01:12.524Z,38.03
2023-05-20T23:03:39.976Z,35.80
2023-05-20T23:06:06.659Z,33.70
2023-05-20T23:08:33.247Z,34.83
2023-05-20T23:10:59.827Z,37.20
2023-05-20T23:13:26.548Z,35.87
2023-05-20T23:15:53.296Z,34.83
2023-05-20T23:18:19.948Z,32.27
2023-05-20T23:20:47.719Z,32.83
2023-05-20T23:23:14.362Z,33.57
2023-05-20T23:25:42.060Z,31.27
2023-05-20T23:28:10.234Z,35.83
2023-05-20T23:30:36.825Z,30.53
2023-05-20T23:33:03.995Z,30.67
2023-05-20T23:35:30.801Z,32.77
2023-05-20T23:37:57.514Z,30.53
2023-05-20T23:40:24.113Z,30.57
2023-05-20T23:42:50.957Z,31.37
2023-05-20T23:45:17.505Z,31.13
2023-05-20T23:47:44.593Z,33.50
2023-05-20T23:50:11.387Z,32.03
2023-05-20T23:52:38.007Z,33.90
2023-05-20T23:55:04.743Z,36.07
2023-05-20T23:57:31.687Z,34.83
2023-05-20T23:59:58.277Z,34.60
